LELN Airport Information

Runway Information
Runway 05 Length 6890 ft width 148 ft
Elevation 2994 ft Threshold 0 ft Heading 45
Runway 23 Length 6890 ft Width 148 ft
Elevation 3001 ft Threshold 0 ft Heading 225
Runway 06 Length 3609 ft width 328 ft
Elevation 3034 ft Threshold 0 ft Heading 60
Runway 24 Length 3609 ft Width 328 ft
Elevation 3000 ft Threshold 0 ft Heading 240
Airport Frequencies
Type APP Name APP Frequency 122.1 MHZ
Type TWR Name TWR Frequency 122.1 MHZ
Airport Navaids
Type VOR-DME Name Leon Frequency 112000 KHZ
Type NDB Name Leon Frequency 330 KHZ
Airport Weather Information & NOTAM
ADDS - METARS form results

(1916 UTC 25 June 2018)
 
METAR text: LELN 251900Z 28003KT CAVOK 27/14 Q1018
Conditions at: LELN (LEON/VIRGEN CAMI, ES) observed 1900 UTC 25 June 2018
Temperature: 27.0°C (81°F)
Dewpoint: 14.0°C (57°F) [RH = 45%]
Pressure (altimeter): 30.06 inches Hg (1018.0 mb)
Winds: from the W (280 degrees) at 3 MPH (3 knots; 1.6 m/s)
Visibility: 6 or more miles (10+ km)
Ceiling: ceiling and visibility are OK
Clouds: unknown
Weather: no significant weather observed at this time

METAR text: LELN 251830Z VRB02KT CAVOK 29/13 Q1018
Conditions at: LELN (LEON/VIRGEN CAMI, ES) observed 1830 UTC 25 June 2018
Temperature: 29.0°C (84°F)
Dewpoint: 13.0°C (55°F) [RH = 37%]
Pressure (altimeter): 30.06 inches Hg (1018.0 mb)
Winds: variable direction winds at 2 MPH (2 knots; 1.0 m/s)
Visibility: 6 or more miles (10+ km)
Ceiling: ceiling and visibility are OK
Clouds: unknown
Weather: no significant weather observed at this time